Aérodrome :
LOGIN :

S'inscrire | Disclaimer

   EN    FR    IT 

 










Légende :    VFR   VFR Marginal   IFR   IFR Intensif   IFR Très Intensif
Visi : 
Plafond : 
>= 8 km
>= 3000ft
5 à 8 km
1000 à 3000 ft
1500m à 5 km
500 à 1000 ft
800 à 1500m
200 à 500 ft
< 800m
< 200 ft
Symboles :   Orages  Brouillard  Fortes neiges  Fortes précipitations  Vent > 20 kt
SIGMETs :   Divers  Orages  Givrage  Turbulence  Onde Orograph.  Cendres Volcan.






- Altitude de l'aérodrome : 154 ft
- Code IATA : SZZ


EPSC - Szczecin Goleniow

DERNIER METAR :
  • 242230Z 23004KT 200V260 9999 FEW028 SCT032 BKN043 10/10 Q1021

METARs EXPIRÉS :
  • 242200Z 18003KT 9999 FEW003 BKN042 10/10 Q1021
  • 242130Z 20003KT 3000 -SHRA FEW002 SCT014 BKN032CB 10/10 Q1021
  • 242100Z 17004KT 9999 FEW032 10/10 Q1021
  • 242030Z 18003KT 160V220 9000 -SHRA FEW002 SCT029CB BKN046 11/09 Q1022
  • 242000Z VRB02KT 9999 -SHRA FEW003 SCT028CB BKN034 11/09 Q1022

TAF TAF EPSC
Valide du 24 à 18h jusqu'au 25 à 18h UTC


241730Z 2418/2518 23003KT 9999 SCT035
TEMPO 2418/2510 4000 -SHRA BKN007 BKN014CB
BECMG 2420/2422 30010KT
BECMG 2503/2506 BKN012
BECMG 2510/2512 36005KT SCT025



MET'MAP, la Météo Aéronautique d'un coup d'oeil ! - Copyright ORBIFLY Décembre 2007 - Disclaimer

ORBIFLY MET'MAP TEAM :

Programmation & Développement : Alexandra Zaïnal
Sur une idée originale de : Baudouin d'Aumeries
Assistance à la programmation : Marc-Olivier Méhu
Soutien technique & logistique : Manuel Goepfert

Contact : metmap@orbifly.com




SOURCES & CREDITS :

   NOAA